LQTZ/TZL METAR and TAF weather

Enter ICAO airport designator
Station Type Date Time Source
LQTZ METAR 2020/06/05 12:00 UTC NOAA

LQTZ 051200Z 19005KT 130V240 9999 BKN030 25/10 Q1001


Station Type Date Time Source
LQTZ Decoded METAR 2020/06/05 12:00 UTC NOAA

Tuzla, Bosnia and Herzegovina (LQTZ) 44-33N 018-42E
Jun 05, 2020 - 08:00 AM EDT / 2020.06.05 1200 UTC
Wind: from the S (190 degrees) at 6 MPH (5 KT) (direction variable):0
Visibility: greater than 7 mile(s):0
Sky conditions: mostly cloudy
Temperature: 77 F (25 C)
Dew Point: 50 F (10 C)
Relative Humidity: 38%
Pressure (altimeter): 29.56 in. Hg (1001 hPa)
ob: LQTZ 051200Z 19005KT 130V240 9999 BKN030 25/10 Q1001
cycle: 12

Station Type Date Time Source
LQTZ TAF 2020/06/05 12:06 UTC NOAA

TAF LQTZ 051100Z 0512/0612 15005KT 9999 BKN045 TX25/0513Z TN14/0604Z
TEMPO 0512/0518 22012KT PROB30
TEMPO 0512/0518 VRB15G25KT 4000 TSRA FEW035CB BKN040

Example: see airport list